createdAt,value
2019-05-25T00:01:26.873Z,99.90
2019-05-25T00:03:56.740Z,99.90
2019-05-25T00:06:26.598Z,99.90
2019-05-25T00:08:56.536Z,99.90
2019-05-25T00:11:26.586Z,99.90
2019-05-25T00:13:56.424Z,99.90
2019-05-25T00:16:26.278Z,99.90
2019-05-25T00:18:56.190Z,99.90
2019-05-25T00:21:26.042Z,99.90
2019-05-25T00:24:10.924Z,99.90
2019-05-25T00:26:27.397Z,99.90
2019-05-25T00:28:57.275Z,99.90
2019-05-25T00:31:27.249Z,99.90
2019-05-25T00:33:57.093Z,99.90
2019-05-25T00:36:27.030Z,99.90
2019-05-25T00:38:57.132Z,99.90
2019-05-25T00:41:26.994Z,99.90
2019-05-25T00:43:56.877Z,99.90
2019-05-25T00:46:26.739Z,99.90
2019-05-25T00:48:56.604Z,99.90
2019-05-25T00:51:26.463Z,99.90
2019-05-25T00:53:56.306Z,99.90
2019-05-25T00:56:26.146Z,99.90
2019-05-25T00:58:56.062Z,99.90
2019-05-25T01:01:26.022Z,99.90
2019-05-25T01:03:55.866Z,99.90
2019-05-25T01:06:25.699Z,99.90
2019-05-25T01:08:56.875Z,99.90
2019-05-25T01:11:26.864Z,99.90
2019-05-25T01:13:56.690Z,99.90
2019-05-25T01:16:26.522Z,99.90
2019-05-25T01:18:56.428Z,99.90
2019-05-25T01:21:26.454Z,99.90
2019-05-25T01:23:56.433Z,99.90
2019-05-25T01:26:26.290Z,99.90
2019-05-25T01:28:57.289Z,99.90
2019-05-25T01:31:27.141Z,99.90
2019-05-25T01:33:57.011Z,99.90
2019-05-25T01:36:26.967Z,99.90
2019-05-25T01:38:56.893Z,99.90
2019-05-25T01:41:26.737Z,99.90
2019-05-25T01:43:56.574Z,99.90
2019-05-25T01:46:26.431Z,99.90
2019-05-25T01:48:56.293Z,99.90
2019-05-25T01:51:26.134Z,99.90
2019-05-25T01:53:55.974Z,99.90
2019-05-25T01:56:25.818Z,99.90
2019-05-25T01:58:55.749Z,99.90
2019-05-25T02:01:25.590Z,99.90
2019-05-25T02:03:55.438Z,99.90
2019-05-25T02:06:25.269Z,99.90
2019-05-25T02:08:55.263Z,99.90
2019-05-25T02:11:25.099Z,99.90
2019-05-25T02:13:54.934Z,99.90
2019-05-25T02:16:24.775Z,99.90
2019-05-25T02:18:54.654Z,99.90
2019-05-25T02:21:24.505Z,99.90
2019-05-25T02:23:54.367Z,99.90
2019-05-25T02:26:24.202Z,99.90
2019-05-25T02:28:54.046Z,99.90
2019-05-25T02:31:23.863Z,99.90
2019-05-25T02:33:53.693Z,99.90
2019-05-25T02:36:24.249Z,99.90
2019-05-25T02:38:54.130Z,99.90
2019-05-25T02:41:23.974Z,99.90
2019-05-25T02:43:53.814Z,99.90
2019-05-25T02:46:23.755Z,99.90
2019-05-25T02:48:53.643Z,99.90
2019-05-25T02:51:23.498Z,99.90
2019-05-25T02:53:53.446Z,99.90
2019-05-25T02:56:23.291Z,99.90
2019-05-25T02:58:53.182Z,99.90
2019-05-25T03:01:23.034Z,99.90
2019-05-25T03:03:52.906Z,99.90
2019-05-25T03:06:22.814Z,99.90
2019-05-25T03:08:54.134Z,99.90
2019-05-25T03:11:24.362Z,99.90
2019-05-25T03:13:54.406Z,99.90
2019-05-25T03:16:24.235Z,99.90
2019-05-25T03:18:54.158Z,99.90
2019-05-25T03:21:24.011Z,99.90
2019-05-25T03:23:53.873Z,99.90
2019-05-25T03:26:23.818Z,99.90
2019-05-25T03:28:53.710Z,99.90
2019-05-25T03:31:23.560Z,99.90
2019-05-25T03:33:53.396Z,99.90
2019-05-25T03:36:23.326Z,99.90
2019-05-25T03:38:53.227Z,99.90
2019-05-25T03:41:23.124Z,99.90
2019-05-25T03:43:52.970Z,99.90
2019-05-25T03:46:22.802Z,99.90
2019-05-25T03:48:52.714Z,99.90
2019-05-25T03:51:22.558Z,99.90
2019-05-25T03:53:52.392Z,99.90
2019-05-25T03:56:22.226Z,99.90
2019-05-25T03:58:52.171Z,99.90
2019-05-25T04:01:22.010Z,99.90
2019-05-25T04:03:51.829Z,99.90
2019-05-25T04:06:21.677Z,99.90
2019-05-25T04:08:51.621Z,99.90
2019-05-25T04:11:21.445Z,99.90
2019-05-25T04:13:52.598Z,99.90
2019-05-25T04:16:22.444Z,99.90
2019-05-25T04:18:52.310Z,99.90
2019-05-25T04:21:22.172Z,99.90
2019-05-25T04:23:52.019Z,99.90
2019-05-25T04:26:22.900Z,99.90
2019-05-25T04:28:53.362Z,99.90
2019-05-25T04:31:23.127Z,99.90
2019-05-25T04:33:52.962Z,99.90
2019-05-25T04:36:23.466Z,99.90
2019-05-25T04:38:53.430Z,99.90
2019-05-25T04:41:23.276Z,99.90
2019-05-25T04:43:53.105Z,99.90
2019-05-25T04:46:22.957Z,99.90
2019-05-25T04:48:52.822Z,99.90
2019-05-25T04:51:22.649Z,99.90
2019-05-25T04:53:52.498Z,99.90
2019-05-25T04:56:38.239Z,99.90
2019-05-25T04:58:53.906Z,99.90
2019-05-25T05:01:23.775Z,99.90
2019-05-25T05:03:53.593Z,99.90
2019-05-25T05:06:23.432Z,99.90
2019-05-25T05:08:53.387Z,99.90
2019-05-25T05:11:23.218Z,99.90
2019-05-25T05:13:53.078Z,99.90
2019-05-25T05:16:23.033Z,99.90
2019-05-25T05:18:53.147Z,99.90
2019-05-25T05:21:23.538Z,99.90
2019-05-25T05:23:53.671Z,99.90
2019-05-25T05:26:26.429Z,99.90
2019-05-25T05:28:56.711Z,99.90
2019-05-25T05:31:26.994Z,99.90
2019-05-25T05:33:57.263Z,99.90
2019-05-25T05:36:28.425Z,99.90
2019-05-25T05:39:00.015Z,99.90
2019-05-25T05:41:31.875Z,99.90
2019-05-25T05:44:04.616Z,99.90
2019-05-25T05:46:35.107Z,99.90
2019-05-25T05:49:05.406Z,99.90
2019-05-25T05:51:36.846Z,99.90
2019-05-25T05:54:06.779Z,99.90
2019-05-25T05:56:36.646Z,99.90
2019-05-25T05:59:06.610Z,99.90
2019-05-25T06:01:36.954Z,99.90
2019-05-25T06:04:06.801Z,99.90
2019-05-25T06:06:36.643Z,99.90
2019-05-25T06:09:08.200Z,99.90
2019-05-25T06:11:38.038Z,99.90
2019-05-25T06:14:08.075Z,99.90
2019-05-25T06:16:37.913Z,99.90
2019-05-25T06:19:07.774Z,99.90
2019-05-25T06:21:37.637Z,99.90
2019-05-25T06:24:07.509Z,99.90
2019-05-25T06:26:37.466Z,99.90
2019-05-25T06:29:07.368Z,99.90
2019-05-25T06:31:37.226Z,99.90
2019-05-25T06:34:07.549Z,99.90
2019-05-25T06:36:37.707Z,99.90
2019-05-25T06:39:10.102Z,99.90
2019-05-25T06:41:40.378Z,99.90
2019-05-25T06:44:10.662Z,99.90
2019-05-25T06:46:40.582Z,99.90
2019-05-25T06:49:10.799Z,99.90
2019-05-25T06:51:40.731Z,99.90
2019-05-25T06:54:10.625Z,99.90
2019-05-25T06:56:40.529Z,99.90
2019-05-25T06:59:10.457Z,99.90
2019-05-25T07:01:40.380Z,99.90
2019-05-25T07:04:10.262Z,99.90
2019-05-25T07:06:40.159Z,99.90
2019-05-25T07:09:10.522Z,99.90
2019-05-25T07:11:41.027Z,99.90
2019-05-25T07:14:11.385Z,99.90
2019-05-25T07:16:43.219Z,99.90
2019-05-25T07:19:13.575Z,99.90
2019-05-25T07:21:43.911Z,99.90
2019-05-25T07:24:14.243Z,99.90
2019-05-25T07:26:44.648Z,99.90
2019-05-25T07:29:14.827Z,99.90
2019-05-25T07:31:45.300Z,99.90
2019-05-25T07:34:15.488Z,99.90
2019-05-25T07:36:45.847Z,99.90
2019-05-25T07:39:16.334Z,99.90
2019-05-25T07:41:46.697Z,99.90
2019-05-25T07:44:16.994Z,99.90
2019-05-25T07:46:46.984Z,99.90
2019-05-25T07:49:17.930Z,99.90
2019-05-25T07:51:47.834Z,99.90
2019-05-25T07:54:17.674Z,99.90
2019-05-25T07:56:47.543Z,99.90
2019-05-25T07:59:17.569Z,99.90
2019-05-25T08:01:47.437Z,99.90
2019-05-25T08:04:17.286Z,99.90
2019-05-25T08:06:47.236Z,99.90
2019-05-25T08:09:17.145Z,99.90
2019-05-25T08:11:47.026Z,99.90
2019-05-25T08:14:16.954Z,99.90
2019-05-25T08:16:46.804Z,99.90
2019-05-25T08:19:16.690Z,99.90
2019-05-25T08:21:46.601Z,99.90
2019-05-25T08:24:16.426Z,99.90
2019-05-25T08:26:46.262Z,99.90
2019-05-25T08:29:16.868Z,99.90
2019-05-25T08:31:47.303Z,99.90
2019-05-25T08:34:17.762Z,99.90
2019-05-25T08:36:48.220Z,99.90
2019-05-25T08:39:20.021Z,99.90
2019-05-25T08:41:50.638Z,99.90
2019-05-25T08:44:21.050Z,99.90
2019-05-25T08:46:50.962Z,99.90
2019-05-25T08:49:20.885Z,99.90
2019-05-25T08:51:50.802Z,99.90
2019-05-25T08:54:20.665Z,99.90
2019-05-25T08:56:50.576Z,99.90
2019-05-25T08:59:20.470Z,99.90
2019-05-25T09:01:50.497Z,99.90
2019-05-25T09:04:20.374Z,99.90
2019-05-25T09:06:50.247Z,99.90
2019-05-25T09:09:20.289Z,99.90
2019-05-25T09:11:50.390Z,99.90
2019-05-25T09:14:20.170Z,99.90
2019-05-25T09:16:50.032Z,99.90
2019-05-25T09:19:19.971Z,99.90
2019-05-25T09:22:02.137Z,99.90
2019-05-25T09:24:22.279Z,99.90
2019-05-25T09:26:52.193Z,99.90
2019-05-25T09:29:22.603Z,99.90
2019-05-25T09:31:52.851Z,99.90
2019-05-25T09:34:23.088Z,99.90
2019-05-25T09:36:53.298Z,99.90
2019-05-25T09:39:23.181Z,99.90
2019-05-25T09:41:53.092Z,99.90
2019-05-25T09:44:23.057Z,99.90
2019-05-25T09:46:52.901Z,99.90
2019-05-25T09:49:22.884Z,99.90
2019-05-25T09:51:52.741Z,99.90
2019-05-25T09:54:22.633Z,99.90
2019-05-25T09:56:52.616Z,99.90
2019-05-25T09:59:22.512Z,99.90
2019-05-25T10:01:52.508Z,99.90
2019-05-25T10:04:22.422Z,99.90
2019-05-25T10:06:52.441Z,99.90
2019-05-25T10:09:22.800Z,99.90
2019-05-25T10:11:53.672Z,99.90
2019-05-25T10:14:24.126Z,99.90
2019-05-25T10:16:54.575Z,99.90
2019-05-25T10:19:37.696Z,99.90
2019-05-25T10:22:08.074Z,99.90
2019-05-25T10:24:38.344Z,99.90
2019-05-25T10:27:08.531Z,99.90
2019-05-25T10:29:39.585Z,99.90
2019-05-25T10:32:09.870Z,99.90
2019-05-25T10:34:40.119Z,99.90
2019-05-25T10:37:09.931Z,99.90
2019-05-25T10:39:40.245Z,99.90
2019-05-25T10:42:10.328Z,99.90
2019-05-25T10:44:40.478Z,99.90
2019-05-25T10:47:10.686Z,99.90
2019-05-25T10:49:40.926Z,99.90
2019-05-25T10:52:11.233Z,99.90
2019-05-25T10:54:41.482Z,99.90
2019-05-25T10:57:13.380Z,99.90
2019-05-25T10:59:52.461Z,99.90
2019-05-25T11:02:15.827Z,99.90
2019-05-25T11:04:46.233Z,99.90
2019-05-25T11:07:16.531Z,99.90
2019-05-25T11:09:46.884Z,99.90
2019-05-25T11:12:17.222Z,99.90
2019-05-25T11:14:47.531Z,99.90
2019-05-25T11:17:17.838Z,99.90
2019-05-25T11:19:48.184Z,99.90
2019-05-25T11:22:18.403Z,99.90
2019-05-25T11:24:48.631Z,99.90
2019-05-25T11:27:19.253Z,99.90
2019-05-25T11:29:49.442Z,99.90
2019-05-25T11:32:19.731Z,99.90
2019-05-25T11:34:49.819Z,99.90
2019-05-25T11:37:19.747Z,99.90
2019-05-25T11:39:49.737Z,99.90
2019-05-25T11:42:19.727Z,99.90
2019-05-25T11:44:49.715Z,99.90
2019-05-25T11:47:19.675Z,99.90
2019-05-25T11:49:49.513Z,99.90
2019-05-25T11:52:19.378Z,99.90
2019-05-25T11:54:49.239Z,99.90
2019-05-25T11:57:19.285Z,99.90
2019-05-25T11:59:49.148Z,94.90
2019-05-25T12:02:19.167Z,94.90
2019-05-25T12:04:49.154Z,93.60
2019-05-25T12:07:19.220Z,97.70
2019-05-25T12:09:49.072Z,97.60
2019-05-25T12:12:19.016Z,95.60
2019-05-25T12:14:50.489Z,94.40
2019-05-25T12:17:20.773Z,92.80
2019-05-25T12:19:50.653Z,91.90
2019-05-25T12:22:22.259Z,95.70
2019-05-25T12:24:52.088Z,90.30
2019-05-25T12:27:22.055Z,83.30
2019-05-25T12:29:51.974Z,80.90
2019-05-25T12:32:21.907Z,82.70
2019-05-25T12:34:51.752Z,85.10
2019-05-25T12:37:21.640Z,76.60
2019-05-25T12:39:51.477Z,75.70
2019-05-25T12:42:21.406Z,77.80
2019-05-25T12:44:51.356Z,75.60
2019-05-25T12:47:21.312Z,74.70
2019-05-25T12:49:51.361Z,76.50
2019-05-25T12:52:21.443Z,77.30
2019-05-25T12:54:51.291Z,75.70
2019-05-25T12:57:23.638Z,78.80
2019-05-25T12:59:52.767Z,75.70
2019-05-25T13:02:22.687Z,78.70
2019-05-25T13:04:52.663Z,75.40
2019-05-25T13:07:22.875Z,70.80
2019-05-25T13:09:52.729Z,78.00
2019-05-25T13:12:22.659Z,82.50
2019-05-25T13:14:52.507Z,77.80
2019-05-25T13:17:22.677Z,78.90
2019-05-25T13:19:52.539Z,76.30
2019-05-25T13:22:23.518Z,78.40
2019-05-25T13:24:53.381Z,70.70
2019-05-25T13:27:23.562Z,71.00
2019-05-25T13:29:53.422Z,69.40
2019-05-25T13:32:23.288Z,77.10
2019-05-25T13:34:53.445Z,80.10
2019-05-25T13:37:23.375Z,81.00
2019-05-25T13:39:53.395Z,82.80
2019-05-25T13:42:23.289Z,79.50
2019-05-25T13:44:53.680Z,88.30
2019-05-25T13:47:23.811Z,92.10
2019-05-25T13:49:53.712Z,91.30
2019-05-25T13:52:23.566Z,95.70
2019-05-25T13:54:53.426Z,94.80
2019-05-25T13:57:23.352Z,94.70
2019-05-25T13:59:53.203Z,97.60
2019-05-25T14:02:23.186Z,98.10
2019-05-25T14:04:53.103Z,99.90
2019-05-25T14:07:22.979Z,99.90
2019-05-25T14:09:52.854Z,98.90
2019-05-25T14:12:22.698Z,99.80
2019-05-25T14:14:52.552Z,99.90
2019-05-25T14:17:22.468Z,99.90
2019-05-25T14:19:52.397Z,98.50
2019-05-25T14:22:22.222Z,99.90
2019-05-25T14:24:52.058Z,99.90
2019-05-25T14:27:22.263Z,99.90
2019-05-25T14:29:52.128Z,99.90
2019-05-25T14:32:21.986Z,99.90
2019-05-25T14:34:51.871Z,99.90
2019-05-25T14:37:21.731Z,99.90
2019-05-25T14:39:51.582Z,99.90
2019-05-25T14:42:23.135Z,99.90
2019-05-25T14:44:53.146Z,99.90
2019-05-25T14:47:23.135Z,99.90
2019-05-25T14:49:53.107Z,99.90
2019-05-25T14:52:23.505Z,99.90
2019-05-25T14:54:53.832Z,99.90
2019-05-25T14:57:24.151Z,99.90
2019-05-25T14:59:53.986Z,99.30
2019-05-25T15:02:23.831Z,98.80
2019-05-25T15:04:53.712Z,99.90
2019-05-25T15:07:24.004Z,93.60
2019-05-25T15:09:53.839Z,91.30
2019-05-25T15:12:25.380Z,88.00
2019-05-25T15:14:55.271Z,79.20
2019-05-25T15:17:25.312Z,77.20
2019-05-25T15:19:55.177Z,75.50
2019-05-25T15:22:25.119Z,69.30
2019-05-25T15:24:54.976Z,66.20
2019-05-25T15:27:24.958Z,65.10
2019-05-25T15:29:54.878Z,64.80
2019-05-25T15:32:24.770Z,63.40
2019-05-25T15:34:55.595Z,61.70
2019-05-25T15:37:25.526Z,62.10
2019-05-25T15:39:55.386Z,64.60
2019-05-25T15:42:25.351Z,64.50
2019-05-25T15:44:56.322Z,61.30
2019-05-25T15:47:26.209Z,59.90
2019-05-25T15:49:56.070Z,61.90
2019-05-25T15:52:25.915Z,63.30
2019-05-25T15:54:55.856Z,62.20
2019-05-25T15:57:25.761Z,63.20
2019-05-25T15:59:55.625Z,62.60
2019-05-25T16:02:36.279Z,62.60
2019-05-25T16:04:57.487Z,65.70
2019-05-25T16:07:27.477Z,66.30
2019-05-25T16:09:57.419Z,69.60
2019-05-25T16:12:27.282Z,75.50
2019-05-25T16:14:57.228Z,76.80
2019-05-25T16:17:27.295Z,80.00
2019-05-25T16:19:57.151Z,82.10
2019-05-25T16:22:27.270Z,83.50
2019-05-25T16:24:57.263Z,86.30
2019-05-25T16:27:27.205Z,89.40
2019-05-25T16:29:57.079Z,91.70
2019-05-25T16:32:26.929Z,95.60
2019-05-25T16:34:56.775Z,95.70
2019-05-25T16:37:26.735Z,94.10
2019-05-25T16:39:56.615Z,95.40
2019-05-25T16:42:26.518Z,96.30
2019-05-25T16:44:56.479Z,96.40
2019-05-25T16:47:26.391Z,97.70
2019-05-25T16:49:56.262Z,98.50
2019-05-25T16:52:26.246Z,97.80
2019-05-25T16:54:56.212Z,99.40
2019-05-25T16:57:26.073Z,99.90
2019-05-25T16:59:55.933Z,99.90
2019-05-25T17:02:25.782Z,99.00
2019-05-25T17:04:55.628Z,99.90
2019-05-25T17:07:25.882Z,99.90
2019-05-25T17:09:55.986Z,99.90
2019-05-25T17:12:26.280Z,99.70
2019-05-25T17:14:56.450Z,99.90
2019-05-25T17:17:26.656Z,99.90
2019-05-25T17:19:56.900Z,99.90
2019-05-25T17:22:27.202Z,99.90
2019-05-25T17:24:59.541Z,99.90
2019-05-25T17:27:29.897Z,99.90
2019-05-25T17:30:00.283Z,99.90
2019-05-25T17:32:30.435Z,99.90
2019-05-25T17:35:00.900Z,99.90
2019-05-25T17:37:31.342Z,99.90
2019-05-25T17:40:01.794Z,99.90
2019-05-25T17:42:32.066Z,99.90
2019-05-25T17:45:03.283Z,99.90
2019-05-25T17:47:33.733Z,99.90
2019-05-25T17:50:04.251Z,99.90
2019-05-25T17:52:34.470Z,99.90
2019-05-25T17:55:05.403Z,99.90
2019-05-25T17:57:35.838Z,99.90
2019-05-25T18:00:07.435Z,99.90
2019-05-25T18:02:37.696Z,99.90
2019-05-25T18:05:08.602Z,99.90
2019-05-25T18:07:39.344Z,99.90
2019-05-25T18:10:09.869Z,99.90
2019-05-25T18:12:40.251Z,99.90
2019-05-25T18:15:10.533Z,99.90
2019-05-25T18:17:40.785Z,99.90
2019-05-25T18:20:11.411Z,99.90
2019-05-25T18:23:00.855Z,99.90
2019-05-25T18:25:31.514Z,99.90
2019-05-25T18:28:01.734Z,99.90
2019-05-25T18:30:32.507Z,99.90
2019-05-25T18:33:02.734Z,99.90
2019-05-25T18:35:33.187Z,99.90
2019-05-25T18:38:03.420Z,99.90
2019-05-25T18:40:33.534Z,99.90
2019-05-25T18:43:03.827Z,99.90
2019-05-25T18:45:34.133Z,99.90
2019-05-25T18:48:05.557Z,99.90
2019-05-25T18:50:35.894Z,99.90
2019-05-25T18:53:06.131Z,99.90
2019-05-25T18:55:36.978Z,99.90
2019-05-25T18:58:07.302Z,99.90
2019-05-25T19:00:37.654Z,99.90
2019-05-25T19:03:09.874Z,99.90
2019-05-25T19:05:39.967Z,99.90
2019-05-25T19:08:10.336Z,99.90
2019-05-25T19:10:40.501Z,99.90
2019-05-25T19:13:10.874Z,99.90
2019-05-25T19:15:41.053Z,99.90
2019-05-25T19:18:11.262Z,99.90
2019-05-25T19:20:41.390Z,99.90
2019-05-25T19:23:11.506Z,99.90
2019-05-25T19:25:42.936Z,99.90
2019-05-25T19:28:13.074Z,99.90
2019-05-25T19:30:43.244Z,99.90
2019-05-25T19:33:15.224Z,99.90
2019-05-25T19:35:45.621Z,99.90
2019-05-25T19:38:15.799Z,99.90
2019-05-25T19:40:46.079Z,99.90
2019-05-25T19:43:16.258Z,99.90
2019-05-25T19:45:47.302Z,99.90
2019-05-25T19:48:17.768Z,99.90
2019-05-25T19:50:47.978Z,99.90
2019-05-25T19:53:18.214Z,99.90
2019-05-25T19:55:48.555Z,99.90
2019-05-25T19:58:18.864Z,99.90
2019-05-25T20:00:49.090Z,99.90
2019-05-25T20:03:19.270Z,99.90
2019-05-25T20:05:49.575Z,99.90
2019-05-25T20:08:19.802Z,99.90
2019-05-25T20:10:50.215Z,99.90
2019-05-25T20:13:20.456Z,99.90
2019-05-25T20:15:50.607Z,99.90
2019-05-25T20:18:21.011Z,99.90
2019-05-25T20:20:51.268Z,99.90
2019-05-25T20:23:21.744Z,99.90
2019-05-25T20:25:52.099Z,99.90
2019-05-25T20:28:22.474Z,99.90
2019-05-25T20:30:52.931Z,99.90
2019-05-25T20:33:27.976Z,99.90
2019-05-25T20:35:55.146Z,99.90
2019-05-25T20:38:25.330Z,99.90
2019-05-25T20:40:55.478Z,99.90
2019-05-25T20:43:25.722Z,99.90
2019-05-25T20:45:57.059Z,99.90
2019-05-25T20:48:27.258Z,99.90
2019-05-25T20:50:57.480Z,99.90
2019-05-25T20:53:27.579Z,99.90
2019-05-25T20:55:57.855Z,99.90
2019-05-25T20:58:28.135Z,99.90
2019-05-25T21:00:58.278Z,99.90
2019-05-25T21:03:28.507Z,99.90
2019-05-25T21:05:58.831Z,99.90
2019-05-25T21:08:29.046Z,99.90
2019-05-25T21:11:18.218Z,99.90
2019-05-25T21:13:48.490Z,99.90
2019-05-25T21:16:18.618Z,99.90
2019-05-25T21:18:48.879Z,99.90
2019-05-25T21:21:19.075Z,99.90
2019-05-25T21:23:49.242Z,99.90
2019-05-25T21:26:19.450Z,99.90
2019-05-25T21:28:49.770Z,99.90
2019-05-25T21:31:23.625Z,99.90
2019-05-25T21:33:51.754Z,99.90
2019-05-25T21:36:22.204Z,99.90
2019-05-25T21:38:52.529Z,99.90
2019-05-25T21:41:22.845Z,99.90
2019-05-25T21:43:52.949Z,99.90
2019-05-25T21:46:23.290Z,99.90
2019-05-25T21:48:53.489Z,99.90
2019-05-25T21:51:23.684Z,99.90
2019-05-25T21:53:53.838Z,99.90
2019-05-25T21:56:24.186Z,99.90
2019-05-25T21:58:54.455Z,99.90
2019-05-25T22:01:24.762Z,99.90
2019-05-25T22:03:54.926Z,99.90
2019-05-25T22:06:25.167Z,99.90
2019-05-25T22:08:55.324Z,99.90
2019-05-25T22:11:25.608Z,99.90
2019-05-25T22:13:56.823Z,99.90
2019-05-25T22:16:27.055Z,99.90
2019-05-25T22:18:57.304Z,99.90
2019-05-25T22:21:27.520Z,99.90
2019-05-25T22:23:58.049Z,99.90
2019-05-25T22:26:28.886Z,99.90
2019-05-25T22:29:00.122Z,99.90
2019-05-25T22:31:30.342Z,99.90
2019-05-25T22:34:00.609Z,99.90
2019-05-25T22:36:39.773Z,99.90
2019-05-25T22:39:02.914Z,99.90
2019-05-25T22:41:33.031Z,99.90
2019-05-25T22:44:03.205Z,99.90
2019-05-25T22:46:33.569Z,99.90
2019-05-25T22:49:03.890Z,99.90
2019-05-25T22:51:34.074Z,99.90
2019-05-25T22:54:04.330Z,99.90
2019-05-25T22:56:34.502Z,99.90
2019-05-25T22:59:04.739Z,99.90
2019-05-25T23:01:34.950Z,99.90
2019-05-25T23:04:05.186Z,99.90
2019-05-25T23:06:35.482Z,99.90
2019-05-25T23:09:06.940Z,99.90
2019-05-25T23:11:37.123Z,99.90
2019-05-25T23:14:09.833Z,99.90
2019-05-25T23:16:39.503Z,99.90
2019-05-25T23:19:09.795Z,99.90
2019-05-25T23:21:39.959Z,99.90
2019-05-25T23:24:10.223Z,99.90
2019-05-25T23:26:40.399Z,99.90
2019-05-25T23:29:10.668Z,99.90
2019-05-25T23:31:40.880Z,99.90
2019-05-25T23:34:11.102Z,99.90
2019-05-25T23:36:41.334Z,99.90
2019-05-25T23:39:11.626Z,99.90
2019-05-25T23:41:41.769Z,99.90
2019-05-25T23:44:11.912Z,99.90
2019-05-25T23:46:42.355Z,99.90
2019-05-25T23:49:12.670Z,99.90
2019-05-25T23:51:42.986Z,99.90
2019-05-25T23:54:13.206Z,99.90
2019-05-25T23:56:43.442Z,99.90
2019-05-25T23:59:13.706Z,99.90
